sensor_id;sensor_type;location;lat;lon;timestamp;P1;durP1;ratioP1;P2;durP2;ratioP2
12681;SDS011;6405;59.208;18.216;2024-02-23T00:01:49;40.10;;;19.20;;
12681;SDS011;6405;59.208;18.216;2024-02-23T00:04:16;38.50;;;18.27;;
12681;SDS011;6405;59.208;18.216;2024-02-23T00:06:43;40.23;;;19.23;;
12681;SDS011;6405;59.208;18.216;2024-02-23T00:09:09;46.00;;;19.03;;
12681;SDS011;6405;59.208;18.216;2024-02-23T00:11:35;18.40;;;9.67;;
12681;SDS011;6405;59.208;18.216;2024-02-23T00:14:06;41.00;;;20.57;;
12681;SDS011;6405;59.208;18.216;2024-02-23T00:16:37;37.80;;;19.53;;
12681;SDS011;6405;59.208;18.216;2024-02-23T00:19:04;41.93;;;20.43;;
12681;SDS011;6405;59.208;18.216;2024-02-23T00:21:29;44.73;;;19.87;;
12681;SDS011;6405;59.208;18.216;2024-02-23T00:23:55;40.20;;;20.30;;
12681;SDS011;6405;59.208;18.216;2024-02-23T00:26:21;47.23;;;20.07;;
12681;SDS011;6405;59.208;18.216;2024-02-23T00:28:46;41.70;;;20.57;;
12681;SDS011;6405;59.208;18.216;2024-02-23T00:31:12;42.23;;;18.73;;
12681;SDS011;6405;59.208;18.216;2024-02-23T00:33:38;46.43;;;19.87;;
12681;SDS011;6405;59.208;18.216;2024-02-23T00:36:07;43.70;;;20.77;;
12681;SDS011;6405;59.208;18.216;2024-02-23T00:38:32;51.07;;;20.23;;
12681;SDS011;6405;59.208;18.216;2024-02-23T00:40:58;37.40;;;16.60;;
12681;SDS011;6405;59.208;18.216;2024-02-23T00:43:24;53.37;;;20.63;;
12681;SDS011;6405;59.208;18.216;2024-02-23T00:45:50;44.73;;;20.50;;
12681;SDS011;6405;59.208;18.216;2024-02-23T00:48:16;43.83;;;21.30;;
12681;SDS011;6405;59.208;18.216;2024-02-23T00:50:41;43.77;;;20.70;;
12681;SDS011;6405;59.208;18.216;2024-02-23T00:53:08;46.17;;;22.37;;
12681;SDS011;6405;59.208;18.216;2024-02-23T00:55:33;49.77;;;21.10;;
12681;SDS011;6405;59.208;18.216;2024-02-23T00:57:59;49.80;;;22.47;;
12681;SDS011;6405;59.208;18.216;2024-02-23T01:00:25;45.77;;;21.73;;
12681;SDS011;6405;59.208;18.216;2024-02-23T01:02:51;39.23;;;17.70;;
12681;SDS011;6405;59.208;18.216;2024-02-23T01:05:17;44.87;;;20.13;;
12681;SDS011;6405;59.208;18.216;2024-02-23T01:07:42;51.57;;;22.10;;
12681;SDS011;6405;59.208;18.216;2024-02-23T01:10:08;44.33;;;20.13;;
12681;SDS011;6405;59.208;18.216;2024-02-23T01:12:35;42.37;;;19.77;;
12681;SDS011;6405;59.208;18.216;2024-02-23T01:15:00;43.97;;;20.70;;
12681;SDS011;6405;59.208;18.216;2024-02-23T01:17:26;35.30;;;16.67;;
12681;SDS011;6405;59.208;18.216;2024-02-23T01:19:52;39.77;;;20.33;;
12681;SDS011;6405;59.208;18.216;2024-02-23T01:22:17;40.10;;;19.67;;
12681;SDS011;6405;59.208;18.216;2024-02-23T01:24:43;42.23;;;19.37;;
12681;SDS011;6405;59.208;18.216;2024-02-23T01:27:09;41.70;;;20.03;;
12681;SDS011;6405;59.208;18.216;2024-02-23T01:29:35;41.47;;;20.20;;
12681;SDS011;6405;59.208;18.216;2024-02-23T01:32:00;44.30;;;21.20;;
12681;SDS011;6405;59.208;18.216;2024-02-23T01:34:26;42.10;;;20.27;;
12681;SDS011;6405;59.208;18.216;2024-02-23T01:36:52;38.30;;;19.90;;
12681;SDS011;6405;59.208;18.216;2024-02-23T01:39:18;44.47;;;20.37;;
12681;SDS011;6405;59.208;18.216;2024-02-23T01:41:43;66.03;;;21.77;;
12681;SDS011;6405;59.208;18.216;2024-02-23T01:44:10;47.90;;;21.27;;
12681;SDS011;6405;59.208;18.216;2024-02-23T01:46:36;54.33;;;23.50;;
12681;SDS011;6405;59.208;18.216;2024-02-23T01:49:02;48.50;;;23.00;;
12681;SDS011;6405;59.208;18.216;2024-02-23T01:51:31;43.83;;;19.40;;
12681;SDS011;6405;59.208;18.216;2024-02-23T01:53:57;58.03;;;24.30;;
12681;SDS011;6405;59.208;18.216;2024-02-23T01:56:23;50.80;;;22.77;;
12681;SDS011;6405;59.208;18.216;2024-02-23T01:58:49;46.80;;;22.40;;
12681;SDS011;6405;59.208;18.216;2024-02-23T02:01:15;49.10;;;22.53;;
12681;SDS011;6405;59.208;18.216;2024-02-23T02:03:40;50.90;;;23.63;;
12681;SDS011;6405;59.208;18.216;2024-02-23T02:06:06;42.07;;;21.77;;
12681;SDS011;6405;59.208;18.216;2024-02-23T02:08:34;46.00;;;21.93;;
12681;SDS011;6405;59.208;18.216;2024-02-23T02:11:00;46.13;;;22.73;;
12681;SDS011;6405;59.208;18.216;2024-02-23T02:13:27;44.70;;;21.13;;
12681;SDS011;6405;59.208;18.216;2024-02-23T02:15:53;39.93;;;19.23;;
12681;SDS011;6405;59.208;18.216;2024-02-23T02:18:19;40.87;;;20.23;;
12681;SDS011;6405;59.208;18.216;2024-02-23T02:20:51;46.03;;;20.87;;
12681;SDS011;6405;59.208;18.216;2024-02-23T02:23:18;42.87;;;20.47;;
12681;SDS011;6405;59.208;18.216;2024-02-23T02:25:44;44.23;;;21.57;;
12681;SDS011;6405;59.208;18.216;2024-02-23T02:28:10;53.03;;;22.40;;
12681;SDS011;6405;59.208;18.216;2024-02-23T02:30:36;50.80;;;22.53;;
12681;SDS011;6405;59.208;18.216;2024-02-23T02:33:03;48.37;;;21.23;;
12681;SDS011;6405;59.208;18.216;2024-02-23T02:35:28;49.93;;;22.90;;
12681;SDS011;6405;59.208;18.216;2024-02-23T02:37:54;47.57;;;24.17;;
12681;SDS011;6405;59.208;18.216;2024-02-23T02:40:20;48.83;;;20.27;;
12681;SDS011;6405;59.208;18.216;2024-02-23T02:42:46;49.30;;;24.43;;
12681;SDS011;6405;59.208;18.216;2024-02-23T02:45:11;52.40;;;24.40;;
12681;SDS011;6405;59.208;18.216;2024-02-23T02:47:37;52.97;;;25.03;;
12681;SDS011;6405;59.208;18.216;2024-02-23T02:50:03;51.83;;;24.27;;
12681;SDS011;6405;59.208;18.216;2024-02-23T02:52:31;48.57;;;21.90;;
12681;SDS011;6405;59.208;18.216;2024-02-23T02:54:57;56.67;;;24.10;;
12681;SDS011;6405;59.208;18.216;2024-02-23T02:57:23;52.03;;;22.27;;
12681;SDS011;6405;59.208;18.216;2024-02-23T02:59:49;47.27;;;23.20;;
12681;SDS011;6405;59.208;18.216;2024-02-23T03:02:15;47.97;;;22.60;;
12681;SDS011;6405;59.208;18.216;2024-02-23T03:04:50;45.47;;;21.87;;
12681;SDS011;6405;59.208;18.216;2024-02-23T03:07:16;40.83;;;21.37;;
12681;SDS011;6405;59.208;18.216;2024-02-23T03:09:42;39.80;;;21.30;;
12681;SDS011;6405;59.208;18.216;2024-02-23T03:12:08;30.03;;;16.40;;
12681;SDS011;6405;59.208;18.216;2024-02-23T03:14:35;37.67;;;19.10;;
12681;SDS011;6405;59.208;18.216;2024-02-23T03:17:06;31.47;;;17.93;;
12681;SDS011;6405;59.208;18.216;2024-02-23T03:19:32;34.83;;;18.50;;
12681;SDS011;6405;59.208;18.216;2024-02-23T03:21:58;33.30;;;17.70;;
12681;SDS011;6405;59.208;18.216;2024-02-23T03:24:24;30.70;;;16.20;;
12681;SDS011;6405;59.208;18.216;2024-02-23T03:26:50;39.70;;;19.10;;
12681;SDS011;6405;59.208;18.216;2024-02-23T03:29:15;31.50;;;17.63;;
12681;SDS011;6405;59.208;18.216;2024-02-23T03:31:41;40.07;;;18.87;;
12681;SDS011;6405;59.208;18.216;2024-02-23T03:34:07;36.30;;;18.17;;
12681;SDS011;6405;59.208;18.216;2024-02-23T03:36:33;42.90;;;19.73;;
12681;SDS011;6405;59.208;18.216;2024-02-23T03:39:00;40.70;;;19.80;;
12681;SDS011;6405;59.208;18.216;2024-02-23T03:41:26;40.63;;;19.93;;
12681;SDS011;6405;59.208;18.216;2024-02-23T03:43:52;42.10;;;20.57;;
12681;SDS011;6405;59.208;18.216;2024-02-23T03:46:40;44.63;;;20.10;;
12681;SDS011;6405;59.208;18.216;2024-02-23T03:49:05;47.53;;;21.63;;
12681;SDS011;6405;59.208;18.216;2024-02-23T03:51:31;65.43;;;24.17;;
12681;SDS011;6405;59.208;18.216;2024-02-23T03:54:01;60.43;;;23.40;;
12681;SDS011;6405;59.208;18.216;2024-02-23T03:56:28;46.83;;;20.90;;
12681;SDS011;6405;59.208;18.216;2024-02-23T03:58:53;43.33;;;22.70;;
12681;SDS011;6405;59.208;18.216;2024-02-23T04:01:19;42.90;;;19.13;;
12681;SDS011;6405;59.208;18.216;2024-02-23T04:04:07;43.57;;;19.37;;
12681;SDS011;6405;59.208;18.216;2024-02-23T04:06:35;41.23;;;20.43;;
12681;SDS011;6405;59.208;18.216;2024-02-23T04:09:01;41.10;;;19.37;;
12681;SDS011;6405;59.208;18.216;2024-02-23T04:11:29;46.00;;;20.90;;
12681;SDS011;6405;59.208;18.216;2024-02-23T04:13:56;45.60;;;21.23;;
12681;SDS011;6405;59.208;18.216;2024-02-23T04:16:24;38.17;;;20.23;;
12681;SDS011;6405;59.208;18.216;2024-02-23T04:18:50;32.93;;;14.70;;
12681;SDS011;6405;59.208;18.216;2024-02-23T04:21:16;36.57;;;17.50;;
12681;SDS011;6405;59.208;18.216;2024-02-23T04:23:45;43.63;;;19.37;;
12681;SDS011;6405;59.208;18.216;2024-02-23T04:26:11;42.40;;;18.93;;
12681;SDS011;6405;59.208;18.216;2024-02-23T04:28:40;43.73;;;19.20;;
12681;SDS011;6405;59.208;18.216;2024-02-23T04:31:07;25.60;;;14.00;;
12681;SDS011;6405;59.208;18.216;2024-02-23T04:33:34;30.70;;;14.90;;
12681;SDS011;6405;59.208;18.216;2024-02-23T04:36:00;27.93;;;15.00;;
12681;SDS011;6405;59.208;18.216;2024-02-23T04:38:27;25.83;;;14.10;;
12681;SDS011;6405;59.208;18.216;2024-02-23T04:40:52;21.73;;;12.43;;
12681;SDS011;6405;59.208;18.216;2024-02-23T04:43:18;21.53;;;12.43;;
12681;SDS011;6405;59.208;18.216;2024-02-23T04:45:44;25.80;;;12.13;;
12681;SDS011;6405;59.208;18.216;2024-02-23T04:48:09;24.67;;;12.17;;
12681;SDS011;6405;59.208;18.216;2024-02-23T04:50:35;23.17;;;12.03;;
12681;SDS011;6405;59.208;18.216;2024-02-23T04:53:01;19.87;;;11.60;;
12681;SDS011;6405;59.208;18.216;2024-02-23T04:55:27;20.53;;;12.40;;
12681;SDS011;6405;59.208;18.216;2024-02-23T04:57:52;19.90;;;11.97;;
12681;SDS011;6405;59.208;18.216;2024-02-23T05:00:18;20.73;;;10.30;;
12681;SDS011;6405;59.208;18.216;2024-02-23T05:02:45;14.63;;;8.80;;
12681;SDS011;6405;59.208;18.216;2024-02-23T05:05:11;20.47;;;11.40;;
12681;SDS011;6405;59.208;18.216;2024-02-23T05:07:37;21.00;;;13.27;;
12681;SDS011;6405;59.208;18.216;2024-02-23T05:10:04;23.80;;;11.93;;
12681;SDS011;6405;59.208;18.216;2024-02-23T05:12:30;26.23;;;12.43;;
12681;SDS011;6405;59.208;18.216;2024-02-23T05:14:55;22.43;;;11.77;;
12681;SDS011;6405;59.208;18.216;2024-02-23T05:17:21;30.33;;;13.67;;
12681;SDS011;6405;59.208;18.216;2024-02-23T05:19:48;27.07;;;12.07;;
12681;SDS011;6405;59.208;18.216;2024-02-23T05:22:14;32.93;;;12.80;;
12681;SDS011;6405;59.208;18.216;2024-02-23T05:24:39;22.37;;;11.27;;
12681;SDS011;6405;59.208;18.216;2024-02-23T05:27:05;25.20;;;10.17;;
12681;SDS011;6405;59.208;18.216;2024-02-23T05:29:31;30.33;;;12.13;;
12681;SDS011;6405;59.208;18.216;2024-02-23T05:31:57;23.67;;;11.57;;
12681;SDS011;6405;59.208;18.216;2024-02-23T05:34:22;35.17;;;13.87;;
12681;SDS011;6405;59.208;18.216;2024-02-23T05:36:48;20.13;;;9.70;;
12681;SDS011;6405;59.208;18.216;2024-02-23T05:39:15;39.47;;;13.27;;
12681;SDS011;6405;59.208;18.216;2024-02-23T05:41:42;31.07;;;11.93;;
12681;SDS011;6405;59.208;18.216;2024-02-23T05:44:08;29.27;;;13.33;;
12681;SDS011;6405;59.208;18.216;2024-02-23T05:46:34;28.50;;;13.47;;
12681;SDS011;6405;59.208;18.216;2024-02-23T05:49:01;37.50;;;14.97;;
12681;SDS011;6405;59.208;18.216;2024-02-23T05:51:29;21.57;;;12.07;;
12681;SDS011;6405;59.208;18.216;2024-02-23T05:53:55;31.13;;;13.67;;
12681;SDS011;6405;59.208;18.216;2024-02-23T05:56:21;26.70;;;13.67;;
12681;SDS011;6405;59.208;18.216;2024-02-23T05:58:49;31.60;;;13.33;;
12681;SDS011;6405;59.208;18.216;2024-02-23T06:01:16;32.20;;;14.63;;
12681;SDS011;6405;59.208;18.216;2024-02-23T06:03:42;36.63;;;16.67;;
12681;SDS011;6405;59.208;18.216;2024-02-23T06:06:07;33.57;;;15.60;;
12681;SDS011;6405;59.208;18.216;2024-02-23T06:08:34;27.40;;;11.93;;
12681;SDS011;6405;59.208;18.216;2024-02-23T06:11:00;35.37;;;14.83;;
12681;SDS011;6405;59.208;18.216;2024-02-23T06:13:25;30.63;;;15.20;;
12681;SDS011;6405;59.208;18.216;2024-02-23T06:15:51;36.73;;;16.87;;
12681;SDS011;6405;59.208;18.216;2024-02-23T06:18:17;42.73;;;17.30;;
12681;SDS011;6405;59.208;18.216;2024-02-23T06:20:43;38.60;;;15.30;;
12681;SDS011;6405;59.208;18.216;2024-02-23T06:23:08;35.07;;;15.83;;
12681;SDS011;6405;59.208;18.216;2024-02-23T06:25:34;35.93;;;16.93;;
12681;SDS011;6405;59.208;18.216;2024-02-23T06:28:00;50.13;;;20.37;;
12681;SDS011;6405;59.208;18.216;2024-02-23T06:30:26;46.40;;;19.70;;
12681;SDS011;6405;59.208;18.216;2024-02-23T06:32:51;37.93;;;19.87;;
12681;SDS011;6405;59.208;18.216;2024-02-23T06:35:17;45.63;;;19.30;;
12681;SDS011;6405;59.208;18.216;2024-02-23T06:37:43;43.23;;;21.37;;
12681;SDS011;6405;59.208;18.216;2024-02-23T06:40:09;49.30;;;23.10;;
12681;SDS011;6405;59.208;18.216;2024-02-23T06:42:35;44.30;;;22.40;;
12681;SDS011;6405;59.208;18.216;2024-02-23T06:45:01;55.70;;;24.13;;
12681;SDS011;6405;59.208;18.216;2024-02-23T06:47:26;61.00;;;23.37;;
12681;SDS011;6405;59.208;18.216;2024-02-23T06:49:52;46.03;;;21.10;;
12681;SDS011;6405;59.208;18.216;2024-02-23T06:52:18;47.97;;;23.17;;
12681;SDS011;6405;59.208;18.216;2024-02-23T06:54:43;50.50;;;25.13;;
12681;SDS011;6405;59.208;18.216;2024-02-23T06:57:10;24.53;;;12.03;;
12681;SDS011;6405;59.208;18.216;2024-02-23T06:59:35;50.47;;;23.17;;
12681;SDS011;6405;59.208;18.216;2024-02-23T07:02:01;46.57;;;21.90;;
12681;SDS011;6405;59.208;18.216;2024-02-23T07:04:27;43.77;;;22.27;;
12681;SDS011;6405;59.208;18.216;2024-02-23T07:06:54;41.33;;;20.03;;
12681;SDS011;6405;59.208;18.216;2024-02-23T07:09:20;42.17;;;19.60;;
12681;SDS011;6405;59.208;18.216;2024-02-23T07:11:46;32.70;;;16.40;;
12681;SDS011;6405;59.208;18.216;2024-02-23T07:14:12;36.73;;;17.87;;
12681;SDS011;6405;59.208;18.216;2024-02-23T07:16:39;32.33;;;14.50;;
12681;SDS011;6405;59.208;18.216;2024-02-23T07:19:06;33.27;;;19.23;;
12681;SDS011;6405;59.208;18.216;2024-02-23T07:21:32;31.20;;;17.40;;
12681;SDS011;6405;59.208;18.216;2024-02-23T07:23:58;32.77;;;18.00;;
12681;SDS011;6405;59.208;18.216;2024-02-23T07:26:24;33.00;;;18.10;;
12681;SDS011;6405;59.208;18.216;2024-02-23T07:28:50;27.50;;;14.73;;
12681;SDS011;6405;59.208;18.216;2024-02-23T07:31:16;32.90;;;17.87;;
12681;SDS011;6405;59.208;18.216;2024-02-23T07:33:42;31.87;;;16.17;;
12681;SDS011;6405;59.208;18.216;2024-02-23T07:36:13;29.73;;;15.60;;
12681;SDS011;6405;59.208;18.216;2024-02-23T07:38:42;30.13;;;15.60;;
12681;SDS011;6405;59.208;18.216;2024-02-23T07:41:11;22.43;;;12.50;;
12681;SDS011;6405;59.208;18.216;2024-02-23T07:43:38;27.63;;;14.17;;
12681;SDS011;6405;59.208;18.216;2024-02-23T07:46:04;24.57;;;13.50;;
12681;SDS011;6405;59.208;18.216;2024-02-23T07:48:33;24.93;;;14.97;;
12681;SDS011;6405;59.208;18.216;2024-02-23T07:51:00;24.40;;;15.97;;
12681;SDS011;6405;59.208;18.216;2024-02-23T07:53:27;24.67;;;14.37;;
12681;SDS011;6405;59.208;18.216;2024-02-23T07:55:53;23.63;;;15.03;;
12681;SDS011;6405;59.208;18.216;2024-02-23T07:58:18;24.00;;;15.33;;
12681;SDS011;6405;59.208;18.216;2024-02-23T08:00:44;28.63;;;16.20;;
12681;SDS011;6405;59.208;18.216;2024-02-23T08:03:09;23.67;;;14.07;;
12681;SDS011;6405;59.208;18.216;2024-02-23T08:05:36;24.33;;;13.37;;
12681;SDS011;6405;59.208;18.216;2024-02-23T08:08:02;24.80;;;14.57;;
12681;SDS011;6405;59.208;18.216;2024-02-23T08:10:27;31.47;;;14.33;;
12681;SDS011;6405;59.208;18.216;2024-02-23T08:12:53;31.53;;;16.97;;
12681;SDS011;6405;59.208;18.216;2024-02-23T08:15:19;29.10;;;16.10;;
12681;SDS011;6405;59.208;18.216;2024-02-23T08:17:45;32.00;;;17.37;;
12681;SDS011;6405;59.208;18.216;2024-02-23T08:20:11;30.30;;;16.27;;
12681;SDS011;6405;59.208;18.216;2024-02-23T08:22:37;28.70;;;17.03;;
12681;SDS011;6405;59.208;18.216;2024-02-23T08:25:02;29.20;;;16.87;;
12681;SDS011;6405;59.208;18.216;2024-02-23T08:27:29;28.80;;;16.50;;
12681;SDS011;6405;59.208;18.216;2024-02-23T08:29:55;26.77;;;15.87;;
12681;SDS011;6405;59.208;18.216;2024-02-23T08:32:21;28.70;;;14.17;;
12681;SDS011;6405;59.208;18.216;2024-02-23T08:34:46;26.27;;;16.17;;
12681;SDS011;6405;59.208;18.216;2024-02-23T08:37:12;22.23;;;13.20;;
12681;SDS011;6405;59.208;18.216;2024-02-23T08:39:38;20.67;;;12.67;;
12681;SDS011;6405;59.208;18.216;2024-02-23T08:42:03;22.93;;;14.33;;
12681;SDS011;6405;59.208;18.216;2024-02-23T08:44:29;15.83;;;10.53;;
12681;SDS011;6405;59.208;18.216;2024-02-23T08:46:55;23.23;;;13.77;;
12681;SDS011;6405;59.208;18.216;2024-02-23T08:49:21;24.63;;;12.20;;
12681;SDS011;6405;59.208;18.216;2024-02-23T08:51:47;20.60;;;12.37;;
12681;SDS011;6405;59.208;18.216;2024-02-23T08:54:12;19.80;;;11.47;;
12681;SDS011;6405;59.208;18.216;2024-02-23T08:56:38;16.07;;;10.47;;
12681;SDS011;6405;59.208;18.216;2024-02-23T08:59:07;17.93;;;11.00;;
12681;SDS011;6405;59.208;18.216;2024-02-23T09:01:34;11.30;;;7.87;;
12681;SDS011;6405;59.208;18.216;2024-02-23T09:03:59;17.90;;;10.90;;
12681;SDS011;6405;59.208;18.216;2024-02-23T09:06:25;17.33;;;10.20;;
12681;SDS011;6405;59.208;18.216;2024-02-23T09:08:51;18.67;;;10.90;;
12681;SDS011;6405;59.208;18.216;2024-02-23T09:11:16;20.20;;;12.60;;
12681;SDS011;6405;59.208;18.216;2024-02-23T09:13:42;20.67;;;12.80;;
12681;SDS011;6405;59.208;18.216;2024-02-23T09:16:08;20.23;;;12.27;;
12681;SDS011;6405;59.208;18.216;2024-02-23T09:18:34;21.87;;;13.20;;
12681;SDS011;6405;59.208;18.216;2024-02-23T09:21:00;22.13;;;13.30;;
12681;SDS011;6405;59.208;18.216;2024-02-23T09:23:26;17.23;;;9.40;;
12681;SDS011;6405;59.208;18.216;2024-02-23T09:25:52;18.17;;;10.97;;
12681;SDS011;6405;59.208;18.216;2024-02-23T09:28:17;23.00;;;12.50;;
12681;SDS011;6405;59.208;18.216;2024-02-23T09:30:43;19.20;;;10.40;;
12681;SDS011;6405;59.208;18.216;2024-02-23T09:33:09;19.70;;;12.30;;
12681;SDS011;6405;59.208;18.216;2024-02-23T09:35:34;15.93;;;10.83;;
12681;SDS011;6405;59.208;18.216;2024-02-23T09:38:00;20.47;;;13.10;;
12681;SDS011;6405;59.208;18.216;2024-02-23T09:40:26;22.50;;;12.10;;
12681;SDS011;6405;59.208;18.216;2024-02-23T09:42:55;16.23;;;11.50;;
12681;SDS011;6405;59.208;18.216;2024-02-23T09:45:22;16.43;;;11.43;;
12681;SDS011;6405;59.208;18.216;2024-02-23T09:47:54;19.53;;;11.13;;
12681;SDS011;6405;59.208;18.216;2024-02-23T09:50:25;15.77;;;10.57;;
12681;SDS011;6405;59.208;18.216;2024-02-23T09:52:52;16.03;;;8.80;;
12681;SDS011;6405;59.208;18.216;2024-02-23T09:55:19;18.07;;;10.80;;
12681;SDS011;6405;59.208;18.216;2024-02-23T09:57:48;15.80;;;8.10;;
12681;SDS011;6405;59.208;18.216;2024-02-23T10:00:21;19.50;;;10.57;;
12681;SDS011;6405;59.208;18.216;2024-02-23T10:02:48;16.53;;;10.27;;
12681;SDS011;6405;59.208;18.216;2024-02-23T10:05:15;13.60;;;8.17;;
12681;SDS011;6405;59.208;18.216;2024-02-23T10:07:42;20.47;;;9.87;;
12681;SDS011;6405;59.208;18.216;2024-02-23T10:10:09;16.60;;;9.33;;
12681;SDS011;6405;59.208;18.216;2024-02-23T10:12:36;14.83;;;8.23;;
12681;SDS011;6405;59.208;18.216;2024-02-23T10:15:03;14.83;;;8.03;;
12681;SDS011;6405;59.208;18.216;2024-02-23T10:17:32;19.77;;;7.57;;
12681;SDS011;6405;59.208;18.216;2024-02-23T10:20:00;14.63;;;7.93;;
12681;SDS011;6405;59.208;18.216;2024-02-23T10:22:30;14.63;;;7.40;;
12681;SDS011;6405;59.208;18.216;2024-02-23T10:24:56;15.53;;;7.57;;
12681;SDS011;6405;59.208;18.216;2024-02-23T10:27:22;13.73;;;7.57;;
12681;SDS011;6405;59.208;18.216;2024-02-23T10:29:51;10.13;;;6.93;;
12681;SDS011;6405;59.208;18.216;2024-02-23T10:32:17;11.27;;;6.30;;
12681;SDS011;6405;59.208;18.216;2024-02-23T10:34:45;9.67;;;6.37;;
12681;SDS011;6405;59.208;18.216;2024-02-23T10:37:13;9.67;;;6.43;;
12681;SDS011;6405;59.208;18.216;2024-02-23T10:39:38;14.27;;;6.17;;
12681;SDS011;6405;59.208;18.216;2024-02-23T10:42:05;10.13;;;6.07;;
12681;SDS011;6405;59.208;18.216;2024-02-23T10:44:34;14.83;;;6.20;;
12681;SDS011;6405;59.208;18.216;2024-02-23T10:47:00;10.57;;;4.87;;
12681;SDS011;6405;59.208;18.216;2024-02-23T10:49:28;10.90;;;5.60;;
12681;SDS011;6405;59.208;18.216;2024-02-23T10:51:54;9.80;;;5.03;;
12681;SDS011;6405;59.208;18.216;2024-02-23T10:54:21;11.90;;;5.20;;
12681;SDS011;6405;59.208;18.216;2024-02-23T10:56:48;8.63;;;5.10;;
12681;SDS011;6405;59.208;18.216;2024-02-23T10:59:16;9.13;;;5.00;;
12681;SDS011;6405;59.208;18.216;2024-02-23T11:01:49;11.20;;;5.00;;
12681;SDS011;6405;59.208;18.216;2024-02-23T11:04:18;9.93;;;4.53;;
12681;SDS011;6405;59.208;18.216;2024-02-23T11:06:53;6.93;;;4.23;;
12681;SDS011;6405;59.208;18.216;2024-02-23T11:09:23;5.70;;;3.17;;
12681;SDS011;6405;59.208;18.216;2024-02-23T11:11:53;10.23;;;3.77;;
12681;SDS011;6405;59.208;18.216;2024-02-23T11:14:29;7.20;;;2.80;;
12681;SDS011;6405;59.208;18.216;2024-02-23T11:16:57;4.27;;;2.80;;
12681;SDS011;6405;59.208;18.216;2024-02-23T11:19:37;4.13;;;2.57;;
12681;SDS011;6405;59.208;18.216;2024-02-23T11:22:04;3.60;;;2.07;;
12681;SDS011;6405;59.208;18.216;2024-02-23T11:24:34;5.73;;;2.20;;
12681;SDS011;6405;59.208;18.216;2024-02-23T11:27:00;5.67;;;2.17;;
12681;SDS011;6405;59.208;18.216;2024-02-23T11:29:33;4.67;;;2.00;;
12681;SDS011;6405;59.208;18.216;2024-02-23T11:31:59;5.40;;;2.23;;
12681;SDS011;6405;59.208;18.216;2024-02-23T11:34:29;5.53;;;1.77;;
12681;SDS011;6405;59.208;18.216;2024-02-23T11:36:55;3.27;;;2.03;;
12681;SDS011;6405;59.208;18.216;2024-02-23T11:39:22;6.13;;;1.90;;
12681;SDS011;6405;59.208;18.216;2024-02-23T11:41:48;4.20;;;1.50;;
12681;SDS011;6405;59.208;18.216;2024-02-23T11:44:15;4.57;;;1.70;;
12681;SDS011;6405;59.208;18.216;2024-02-23T11:46:44;2.80;;;1.77;;
12681;SDS011;6405;59.208;18.216;2024-02-23T11:49:11;2.87;;;1.60;;
12681;SDS011;6405;59.208;18.216;2024-02-23T11:51:37;5.13;;;1.53;;
12681;SDS011;6405;59.208;18.216;2024-02-23T11:54:03;5.13;;;1.27;;
12681;SDS011;6405;59.208;18.216;2024-02-23T11:56:29;3.57;;;1.43;;
12681;SDS011;6405;59.208;18.216;2024-02-23T11:58:55;6.10;;;1.70;;
12681;SDS011;6405;59.208;18.216;2024-02-23T12:01:21;2.53;;;1.20;;
12681;SDS011;6405;59.208;18.216;2024-02-23T12:03:47;5.33;;;1.10;;
12681;SDS011;6405;59.208;18.216;2024-02-23T12:06:13;6.20;;;1.50;;
12681;SDS011;6405;59.208;18.216;2024-02-23T12:08:43;3.20;;;1.17;;
12681;SDS011;6405;59.208;18.216;2024-02-23T12:11:10;3.00;;;1.30;;
12681;SDS011;6405;59.208;18.216;2024-02-23T12:13:37;4.47;;;1.00;;
12681;SDS011;6405;59.208;18.216;2024-02-23T12:16:03;5.27;;;1.27;;
12681;SDS011;6405;59.208;18.216;2024-02-23T12:18:32;3.90;;;1.03;;
12681;SDS011;6405;59.208;18.216;2024-02-23T12:21:03;4.63;;;1.50;;
12681;SDS011;6405;59.208;18.216;2024-02-23T12:23:38;2.80;;;1.20;;
12681;SDS011;6405;59.208;18.216;2024-02-23T12:26:08;4.83;;;1.30;;
12681;SDS011;6405;59.208;18.216;2024-02-23T12:28:33;5.27;;;1.00;;
12681;SDS011;6405;59.208;18.216;2024-02-23T12:31:00;6.60;;;1.20;;
12681;SDS011;6405;59.208;18.216;2024-02-23T12:33:29;4.00;;;0.80;;
12681;SDS011;6405;59.208;18.216;2024-02-23T12:35:58;3.57;;;0.77;;
12681;SDS011;6405;59.208;18.216;2024-02-23T12:38:24;2.50;;;1.10;;
12681;SDS011;6405;59.208;18.216;2024-02-23T12:40:50;2.17;;;0.70;;
12681;SDS011;6405;59.208;18.216;2024-02-23T12:43:17;4.47;;;0.93;;
12681;SDS011;6405;59.208;18.216;2024-02-23T12:45:43;4.30;;;0.90;;
12681;SDS011;6405;59.208;18.216;2024-02-23T12:48:10;3.20;;;1.17;;
12681;SDS011;6405;59.208;18.216;2024-02-23T12:50:36;0.97;;;0.70;;
12681;SDS011;6405;59.208;18.216;2024-02-23T12:53:02;2.87;;;0.80;;
12681;SDS011;6405;59.208;18.216;2024-02-23T12:55:29;3.50;;;0.80;;
12681;SDS011;6405;59.208;18.216;2024-02-23T12:57:54;8.50;;;1.03;;
12681;SDS011;6405;59.208;18.216;2024-02-23T13:00:20;2.43;;;0.80;;
12681;SDS011;6405;59.208;18.216;2024-02-23T13:02:46;1.43;;;0.60;;
12681;SDS011;6405;59.208;18.216;2024-02-23T13:05:12;4.23;;;0.80;;
12681;SDS011;6405;59.208;18.216;2024-02-23T13:07:37;3.20;;;0.93;;
12681;SDS011;6405;59.208;18.216;2024-02-23T13:10:05;2.67;;;0.87;;
12681;SDS011;6405;59.208;18.216;2024-02-23T13:12:32;6.77;;;1.07;;
12681;SDS011;6405;59.208;18.216;2024-02-23T13:14:58;2.20;;;0.70;;
12681;SDS011;6405;59.208;18.216;2024-02-23T13:17:23;3.23;;;0.83;;
12681;SDS011;6405;59.208;18.216;2024-02-23T13:19:49;7.57;;;0.93;;
12681;SDS011;6405;59.208;18.216;2024-02-23T13:22:15;4.57;;;0.80;;
12681;SDS011;6405;59.208;18.216;2024-02-23T13:24:40;4.57;;;0.87;;
12681;SDS011;6405;59.208;18.216;2024-02-23T13:27:06;3.03;;;0.77;;
12681;SDS011;6405;59.208;18.216;2024-02-23T13:29:32;5.87;;;0.90;;
12681;SDS011;6405;59.208;18.216;2024-02-23T13:31:57;4.40;;;1.07;;
12681;SDS011;6405;59.208;18.216;2024-02-23T13:34:23;5.17;;;0.97;;
12681;SDS011;6405;59.208;18.216;2024-02-23T13:36:49;6.50;;;0.93;;
12681;SDS011;6405;59.208;18.216;2024-02-23T13:39:17;3.57;;;0.73;;
12681;SDS011;6405;59.208;18.216;2024-02-23T13:41:43;2.23;;;0.83;;
12681;SDS011;6405;59.208;18.216;2024-02-23T13:44:09;2.57;;;1.00;;
12681;SDS011;6405;59.208;18.216;2024-02-23T13:46:37;5.63;;;1.10;;
12681;SDS011;6405;59.208;18.216;2024-02-23T13:49:05;7.03;;;1.17;;
12681;SDS011;6405;59.208;18.216;2024-02-23T13:51:32;5.43;;;0.87;;
12681;SDS011;6405;59.208;18.216;2024-02-23T13:53:58;2.80;;;0.77;;
12681;SDS011;6405;59.208;18.216;2024-02-23T13:56:24;3.10;;;0.87;;
12681;SDS011;6405;59.208;18.216;2024-02-23T13:58:50;2.80;;;0.80;;
12681;SDS011;6405;59.208;18.216;2024-02-23T14:01:16;3.53;;;0.87;;
12681;SDS011;6405;59.208;18.216;2024-02-23T14:03:41;6.23;;;1.10;;
12681;SDS011;6405;59.208;18.216;2024-02-23T14:06:08;3.97;;;1.20;;
12681;SDS011;6405;59.208;18.216;2024-02-23T14:08:34;4.27;;;1.00;;
12681;SDS011;6405;59.208;18.216;2024-02-23T14:11:02;5.00;;;1.10;;
12681;SDS011;6405;59.208;18.216;2024-02-23T14:13:31;3.27;;;0.90;;
12681;SDS011;6405;59.208;18.216;2024-02-23T14:15:57;4.93;;;1.30;;
12681;SDS011;6405;59.208;18.216;2024-02-23T14:18:23;5.87;;;1.43;;
12681;SDS011;6405;59.208;18.216;2024-02-23T14:20:49;4.07;;;0.90;;
12681;SDS011;6405;59.208;18.216;2024-02-23T14:23:17;4.20;;;0.90;;
12681;SDS011;6405;59.208;18.216;2024-02-23T14:25:43;2.47;;;1.07;;